sensor_id;sensor_type;location;lat;lon;timestamp;P1;durP1;ratioP1;P2;durP2;ratioP2
20146;SDS011;10234;50.856;15.716;2022-07-05T00:00:19;14.80;;;13.43;;
20146;SDS011;10234;50.856;15.716;2022-07-05T00:02:47;13.27;;;12.20;;
20146;SDS011;10234;50.856;15.716;2022-07-05T00:05:14;16.25;;;14.65;;
20146;SDS011;10234;50.856;15.716;2022-07-05T00:07:42;15.88;;;14.15;;
20146;SDS011;10234;50.856;15.716;2022-07-05T00:10:09;15.95;;;14.55;;
20146;SDS011;10234;50.856;15.716;2022-07-05T00:12:37;17.45;;;15.82;;
20146;SDS011;10234;50.856;15.716;2022-07-05T00:15:05;16.85;;;15.38;;
20146;SDS011;10234;50.856;15.716;2022-07-05T00:17:35;16.60;;;15.00;;
20146;SDS011;10234;50.856;15.716;2022-07-05T00:20:03;16.40;;;15.00;;
20146;SDS011;10234;50.856;15.716;2022-07-05T00:22:31;16.13;;;14.35;;
20146;SDS011;10234;50.856;15.716;2022-07-05T00:24:59;16.55;;;14.63;;
20146;SDS011;10234;50.856;15.716;2022-07-05T00:27:26;18.17;;;16.23;;
20146;SDS011;10234;50.856;15.716;2022-07-05T00:29:54;17.33;;;15.60;;
20146;SDS011;10234;50.856;15.716;2022-07-05T00:32:21;16.13;;;14.45;;
20146;SDS011;10234;50.856;15.716;2022-07-05T00:34:51;15.93;;;14.43;;
20146;SDS011;10234;50.856;15.716;2022-07-05T00:37:18;13.25;;;11.93;;
20146;SDS011;10234;50.856;15.716;2022-07-05T00:39:46;14.00;;;12.73;;
20146;SDS011;10234;50.856;15.716;2022-07-05T00:42:13;13.70;;;12.40;;
20146;SDS011;10234;50.856;15.716;2022-07-05T00:44:41;14.38;;;13.10;;
20146;SDS011;10234;50.856;15.716;2022-07-05T00:47:10;14.93;;;13.35;;
20146;SDS011;10234;50.856;15.716;2022-07-05T00:49:39;14.02;;;12.82;;
20146;SDS011;10234;50.856;15.716;2022-07-05T00:52:09;15.02;;;13.73;;
20146;SDS011;10234;50.856;15.716;2022-07-05T00:54:37;15.38;;;13.90;;
20146;SDS011;10234;50.856;15.716;2022-07-05T00:57:05;14.27;;;12.98;;
20146;SDS011;10234;50.856;15.716;2022-07-05T00:59:33;13.48;;;12.32;;
20146;SDS011;10234;50.856;15.716;2022-07-05T01:02:02;12.65;;;11.45;;
20146;SDS011;10234;50.856;15.716;2022-07-05T01:04:30;12.85;;;11.85;;
20146;SDS011;10234;50.856;15.716;2022-07-05T01:06:57;13.82;;;12.50;;
20146;SDS011;10234;50.856;15.716;2022-07-05T01:09:27;14.70;;;13.50;;
20146;SDS011;10234;50.856;15.716;2022-07-05T01:11:55;16.20;;;14.80;;
20146;SDS011;10234;50.856;15.716;2022-07-05T01:14:23;15.20;;;13.70;;
20146;SDS011;10234;50.856;15.716;2022-07-05T01:19:25;16.17;;;14.18;;
20146;SDS011;10234;50.856;15.716;2022-07-05T01:21:54;17.98;;;16.13;;
20146;SDS011;10234;50.856;15.716;2022-07-05T01:24:23;17.75;;;16.05;;
20146;SDS011;10234;50.856;15.716;2022-07-05T01:26:50;17.50;;;15.80;;
20146;SDS011;10234;50.856;15.716;2022-07-05T01:29:19;17.77;;;16.27;;
20146;SDS011;10234;50.856;15.716;2022-07-05T01:31:47;18.02;;;16.33;;
20146;SDS011;10234;50.856;15.716;2022-07-05T01:34:14;16.95;;;15.10;;
20146;SDS011;10234;50.856;15.716;2022-07-05T01:36:42;17.60;;;15.88;;
20146;SDS011;10234;50.856;15.716;2022-07-05T01:39:10;15.40;;;13.80;;
20146;SDS011;10234;50.856;15.716;2022-07-05T01:41:39;16.88;;;15.10;;
20146;SDS011;10234;50.856;15.716;2022-07-05T01:44:07;13.38;;;12.18;;
20146;SDS011;10234;50.856;15.716;2022-07-05T01:46:34;12.82;;;11.43;;
20146;SDS011;10234;50.856;15.716;2022-07-05T01:49:04;10.68;;;9.65;;
20146;SDS011;10234;50.856;15.716;2022-07-05T01:51:37;10.85;;;9.77;;
20146;SDS011;10234;50.856;15.716;2022-07-05T01:54:09;11.90;;;9.38;;
20146;SDS011;10234;50.856;15.716;2022-07-05T01:56:37;10.90;;;9.90;;
20146;SDS011;10234;50.856;15.716;2022-07-05T01:59:06;11.55;;;10.30;;
20146;SDS011;10234;50.856;15.716;2022-07-05T02:01:34;10.70;;;9.80;;
20146;SDS011;10234;50.856;15.716;2022-07-05T02:04:04;12.23;;;10.10;;
20146;SDS011;10234;50.856;15.716;2022-07-05T02:06:32;11.07;;;10.15;;
20146;SDS011;10234;50.856;15.716;2022-07-05T02:09:00;10.88;;;9.98;;
20146;SDS011;10234;50.856;15.716;2022-07-05T02:11:29;10.65;;;9.50;;
20146;SDS011;10234;50.856;15.716;2022-07-05T02:13:58;13.80;;;11.05;;
20146;SDS011;10234;50.856;15.716;2022-07-05T02:16:26;12.65;;;9.50;;
20146;SDS011;10234;50.856;15.716;2022-07-05T02:18:55;10.43;;;9.55;;
20146;SDS011;10234;50.856;15.716;2022-07-05T02:21:22;8.30;;;7.70;;
20146;SDS011;10234;50.856;15.716;2022-07-05T02:23:50;7.07;;;6.53;;
20146;SDS011;10234;50.856;15.716;2022-07-05T02:26:18;7.82;;;6.93;;
20146;SDS011;10234;50.856;15.716;2022-07-05T02:28:45;8.57;;;7.88;;
20146;SDS011;10234;50.856;15.716;2022-07-05T02:31:15;9.25;;;7.75;;
20146;SDS011;10234;50.856;15.716;2022-07-05T02:33:44;8.98;;;8.18;;
20146;SDS011;10234;50.856;15.716;2022-07-05T02:36:12;9.30;;;8.50;;
20146;SDS011;10234;50.856;15.716;2022-07-05T02:38:41;9.60;;;8.80;;
20146;SDS011;10234;50.856;15.716;2022-07-05T02:41:09;10.20;;;8.02;;
20146;SDS011;10234;50.856;15.716;2022-07-05T02:43:37;8.88;;;8.18;;
20146;SDS011;10234;50.856;15.716;2022-07-05T02:46:06;9.75;;;8.85;;
20146;SDS011;10234;50.856;15.716;2022-07-05T02:48:37;11.13;;;9.18;;
20146;SDS011;10234;50.856;15.716;2022-07-05T02:51:04;9.57;;;8.65;;
20146;SDS011;10234;50.856;15.716;2022-07-05T02:53:32;10.13;;;9.15;;
20146;SDS011;10234;50.856;15.716;2022-07-05T02:56:00;8.82;;;8.13;;
20146;SDS011;10234;50.856;15.716;2022-07-05T02:58:28;9.32;;;7.65;;
20146;SDS011;10234;50.856;15.716;2022-07-05T03:00:55;8.95;;;8.15;;
20146;SDS011;10234;50.856;15.716;2022-07-05T03:03:23;8.80;;;8.20;;
20146;SDS011;10234;50.856;15.716;2022-07-05T03:05:52;8.68;;;7.78;;
20146;SDS011;10234;50.856;15.716;2022-07-05T03:08:20;9.88;;;8.98;;
20146;SDS011;10234;50.856;15.716;2022-07-05T03:10:48;9.10;;;8.35;;
20146;SDS011;10234;50.856;15.716;2022-07-05T03:13:15;9.30;;;8.50;;
20146;SDS011;10234;50.856;15.716;2022-07-05T03:15:43;9.20;;;8.30;;
20146;SDS011;10234;50.856;15.716;2022-07-05T03:18:11;9.68;;;8.73;;
20146;SDS011;10234;50.856;15.716;2022-07-05T03:20:38;9.82;;;9.02;;
20146;SDS011;10234;50.856;15.716;2022-07-05T03:23:07;9.88;;;8.93;;
20146;SDS011;10234;50.856;15.716;2022-07-05T03:25:35;9.13;;;8.32;;
20146;SDS011;10234;50.856;15.716;2022-07-05T03:28:03;11.18;;;10.13;;
20146;SDS011;10234;50.856;15.716;2022-07-05T03:30:30;11.38;;;8.80;;
20146;SDS011;10234;50.856;15.716;2022-07-05T03:32:58;10.05;;;9.15;;
20146;SDS011;10234;50.856;15.716;2022-07-05T03:35:26;9.73;;;8.82;;
20146;SDS011;10234;50.856;15.716;2022-07-05T03:37:54;9.82;;;8.82;;
20146;SDS011;10234;50.856;15.716;2022-07-05T03:40:23;11.77;;;9.57;;
20146;SDS011;10234;50.856;15.716;2022-07-05T03:42:51;10.27;;;9.32;;
20146;SDS011;10234;50.856;15.716;2022-07-05T03:45:18;10.50;;;9.55;;
20146;SDS011;10234;50.856;15.716;2022-07-05T03:47:46;11.23;;;10.30;;
20146;SDS011;10234;50.856;15.716;2022-07-05T03:50:14;10.50;;;8.93;;
20146;SDS011;10234;50.856;15.716;2022-07-05T03:52:41;10.30;;;9.40;;
20146;SDS011;10234;50.856;15.716;2022-07-05T03:55:09;11.02;;;10.05;;
20146;SDS011;10234;50.856;15.716;2022-07-05T03:57:38;12.07;;;11.00;;
20146;SDS011;10234;50.856;15.716;2022-07-05T04:00:06;12.85;;;11.60;;
20146;SDS011;10234;50.856;15.716;2022-07-05T04:02:34;10.85;;;9.98;;
20146;SDS011;10234;50.856;15.716;2022-07-05T04:05:02;10.32;;;9.32;;
20146;SDS011;10234;50.856;15.716;2022-07-05T04:07:30;9.70;;;8.80;;
20146;SDS011;10234;50.856;15.716;2022-07-05T04:09:58;9.93;;;8.68;;
20146;SDS011;10234;50.856;15.716;2022-07-05T04:12:25;9.88;;;9.02;;
20146;SDS011;10234;50.856;15.716;2022-07-05T04:14:54;10.20;;;9.43;;
20146;SDS011;10234;50.856;15.716;2022-07-05T04:17:22;11.80;;;10.70;;
20146;SDS011;10234;50.856;15.716;2022-07-05T04:19:50;10.43;;;9.52;;
20146;SDS011;10234;50.856;15.716;2022-07-05T04:22:17;10.80;;;9.93;;
20146;SDS011;10234;50.856;15.716;2022-07-05T04:24:45;13.10;;;9.05;;
20146;SDS011;10234;50.856;15.716;2022-07-05T04:27:30;13.57;;;9.32;;
20146;SDS011;10234;50.856;15.716;2022-07-05T04:29:59;12.63;;;8.60;;
20146;SDS011;10234;50.856;15.716;2022-07-05T04:32:27;8.60;;;7.80;;
20146;SDS011;10234;50.856;15.716;2022-07-05T04:34:54;9.30;;;8.43;;
20146;SDS011;10234;50.856;15.716;2022-07-05T04:37:22;8.88;;;8.05;;
20146;SDS011;10234;50.856;15.716;2022-07-05T04:39:49;9.07;;;8.23;;
20146;SDS011;10234;50.856;15.716;2022-07-05T04:42:17;9.45;;;8.65;;
20146;SDS011;10234;50.856;15.716;2022-07-05T04:44:44;12.05;;;8.82;;
20146;SDS011;10234;50.856;15.716;2022-07-05T04:47:13;9.05;;;8.15;;
20146;SDS011;10234;50.856;15.716;2022-07-05T04:49:41;8.75;;;7.82;;
20146;SDS011;10234;50.856;15.716;2022-07-05T04:52:08;8.88;;;8.00;;
20146;SDS011;10234;50.856;15.716;2022-07-05T04:54:36;9.25;;;8.38;;
20146;SDS011;10234;50.856;15.716;2022-07-05T04:57:26;9.77;;;8.88;;
20146;SDS011;10234;50.856;15.716;2022-07-05T04:59:54;8.65;;;8.02;;
20146;SDS011;10234;50.856;15.716;2022-07-05T05:02:23;7.80;;;7.20;;
20146;SDS011;10234;50.856;15.716;2022-07-05T05:04:50;7.15;;;6.55;;
20146;SDS011;10234;50.856;15.716;2022-07-05T05:07:17;8.02;;;7.32;;
20146;SDS011;10234;50.856;15.716;2022-07-05T05:09:45;7.90;;;7.10;;
20146;SDS011;10234;50.856;15.716;2022-07-05T05:12:12;7.97;;;7.10;;
20146;SDS011;10234;50.856;15.716;2022-07-05T05:14:40;7.55;;;6.95;;
20146;SDS011;10234;50.856;15.716;2022-07-05T05:17:07;7.35;;;6.65;;
20146;SDS011;10234;50.856;15.716;2022-07-05T05:19:36;8.18;;;7.47;;
20146;SDS011;10234;50.856;15.716;2022-07-05T05:22:04;7.90;;;7.20;;
20146;SDS011;10234;50.856;15.716;2022-07-05T05:24:31;8.95;;;8.15;;
20146;SDS011;10234;50.856;15.716;2022-07-05T05:26:59;7.75;;;7.05;;
20146;SDS011;10234;50.856;15.716;2022-07-05T05:29:27;8.57;;;7.82;;
20146;SDS011;10234;50.856;15.716;2022-07-05T05:31:55;9.38;;;8.40;;
20146;SDS011;10234;50.856;15.716;2022-07-05T05:34:22;9.73;;;8.90;;
20146;SDS011;10234;50.856;15.716;2022-07-05T05:36:51;9.93;;;9.13;;
20146;SDS011;10234;50.856;15.716;2022-07-05T05:39:19;9.05;;;8.27;;
20146;SDS011;10234;50.856;15.716;2022-07-05T05:41:46;9.93;;;8.55;;
20146;SDS011;10234;50.856;15.716;2022-07-05T05:44:14;8.60;;;7.72;;
20146;SDS011;10234;50.856;15.716;2022-07-05T05:46:41;9.20;;;8.32;;
20146;SDS011;10234;50.856;15.716;2022-07-05T05:49:08;7.97;;;7.43;;
20146;SDS011;10234;50.856;15.716;2022-07-05T05:51:36;7.82;;;7.10;;
20146;SDS011;10234;50.856;15.716;2022-07-05T05:54:05;7.30;;;6.70;;
20146;SDS011;10234;50.856;15.716;2022-07-05T05:56:32;6.95;;;6.45;;
20146;SDS011;10234;50.856;15.716;2022-07-05T05:59:00;7.18;;;6.03;;
20146;SDS011;10234;50.856;15.716;2022-07-05T06:01:27;6.25;;;5.80;;
20146;SDS011;10234;50.856;15.716;2022-07-05T06:03:55;6.10;;;5.40;;
20146;SDS011;10234;50.856;15.716;2022-07-05T06:06:23;6.68;;;6.07;;
20146;SDS011;10234;50.856;15.716;2022-07-05T06:08:50;6.90;;;6.30;;
20146;SDS011;10234;50.856;15.716;2022-07-05T06:11:19;6.82;;;6.22;;
20146;SDS011;10234;50.856;15.716;2022-07-05T06:13:46;7.03;;;6.53;;
20146;SDS011;10234;50.856;15.716;2022-07-05T06:16:14;7.18;;;6.57;;
20146;SDS011;10234;50.856;15.716;2022-07-05T06:18:41;6.50;;;5.90;;
20146;SDS011;10234;50.856;15.716;2022-07-05T06:21:09;6.70;;;6.10;;
20146;SDS011;10234;50.856;15.716;2022-07-05T06:23:37;6.35;;;5.78;;
20146;SDS011;10234;50.856;15.716;2022-07-05T06:26:04;6.38;;;5.78;;
20146;SDS011;10234;50.856;15.716;2022-07-05T06:28:33;5.97;;;5.47;;
20146;SDS011;10234;50.856;15.716;2022-07-05T06:31:00;5.55;;;5.10;;
20146;SDS011;10234;50.856;15.716;2022-07-05T06:33:28;5.60;;;5.10;;
20146;SDS011;10234;50.856;15.716;2022-07-05T06:35:55;5.95;;;5.53;;
20146;SDS011;10234;50.856;15.716;2022-07-05T06:38:23;5.38;;;4.90;;
20146;SDS011;10234;50.856;15.716;2022-07-05T06:40:51;5.30;;;4.80;;
20146;SDS011;10234;50.856;15.716;2022-07-05T06:43:18;6.05;;;5.47;;
20146;SDS011;10234;50.856;15.716;2022-07-05T06:45:47;6.00;;;5.50;;
20146;SDS011;10234;50.856;15.716;2022-07-05T06:48:15;6.00;;;5.50;;
20146;SDS011;10234;50.856;15.716;2022-07-05T06:50:43;6.45;;;6.03;;
20146;SDS011;10234;50.856;15.716;2022-07-05T06:53:11;6.95;;;6.40;;
20146;SDS011;10234;50.856;15.716;2022-07-05T06:55:38;6.75;;;6.05;;
20146;SDS011;10234;50.856;15.716;2022-07-05T06:58:10;7.00;;;6.30;;
20146;SDS011;10234;50.856;15.716;2022-07-05T07:00:38;6.88;;;6.18;;
20146;SDS011;10234;50.856;15.716;2022-07-05T07:03:07;6.80;;;6.22;;
20146;SDS011;10234;50.856;15.716;2022-07-05T07:05:35;6.57;;;6.07;;
20146;SDS011;10234;50.856;15.716;2022-07-05T07:08:03;6.78;;;6.18;;
20146;SDS011;10234;50.856;15.716;2022-07-05T07:10:48;5.78;;;5.30;;
20146;SDS011;10234;50.856;15.716;2022-07-05T07:13:16;6.45;;;5.95;;
20146;SDS011;10234;50.856;15.716;2022-07-05T07:15:45;6.20;;;5.75;;
20146;SDS011;10234;50.856;15.716;2022-07-05T07:18:15;6.40;;;5.90;;
20146;SDS011;10234;50.856;15.716;2022-07-05T07:20:42;6.20;;;5.18;;
20146;SDS011;10234;50.856;15.716;2022-07-05T07:23:10;5.28;;;4.65;;
20146;SDS011;10234;50.856;15.716;2022-07-05T07:25:37;4.88;;;4.53;;
20146;SDS011;10234;50.856;15.716;2022-07-05T07:28:05;5.45;;;4.95;;
20146;SDS011;10234;50.856;15.716;2022-07-05T07:30:32;5.70;;;4.80;;
20146;SDS011;10234;50.856;15.716;2022-07-05T07:33:00;4.90;;;4.50;;
20146;SDS011;10234;50.856;15.716;2022-07-05T07:35:29;4.88;;;4.05;;
20146;SDS011;10234;50.856;15.716;2022-07-05T07:37:57;4.32;;;3.83;;
20146;SDS011;10234;50.856;15.716;2022-07-05T07:40:25;4.03;;;3.72;;
20146;SDS011;10234;50.856;15.716;2022-07-05T07:42:53;4.72;;;4.13;;
20146;SDS011;10234;50.856;15.716;2022-07-05T07:45:21;4.45;;;4.15;;
20146;SDS011;10234;50.856;15.716;2022-07-05T07:47:51;4.47;;;4.18;;
20146;SDS011;10234;50.856;15.716;2022-07-05T07:50:19;3.92;;;3.63;;
20146;SDS011;10234;50.856;15.716;2022-07-05T07:52:48;4.07;;;3.78;;
20146;SDS011;10234;50.856;15.716;2022-07-05T07:55:15;3.47;;;3.17;;
20146;SDS011;10234;50.856;15.716;2022-07-05T07:57:43;3.53;;;3.22;;
20146;SDS011;10234;50.856;15.716;2022-07-05T08:00:11;3.70;;;3.40;;
20146;SDS011;10234;50.856;15.716;2022-07-05T08:02:39;3.20;;;3.00;;
20146;SDS011;10234;50.856;15.716;2022-07-05T08:05:06;3.33;;;2.97;;
20146;SDS011;10234;50.856;15.716;2022-07-05T08:07:35;2.83;;;2.60;;
20146;SDS011;10234;50.856;15.716;2022-07-05T08:10:05;3.25;;;2.95;;
20146;SDS011;10234;50.856;15.716;2022-07-05T08:12:34;4.38;;;2.65;;
20146;SDS011;10234;50.856;15.716;2022-07-05T08:15:01;3.63;;;2.97;;
20146;SDS011;10234;50.856;15.716;2022-07-05T08:17:29;2.70;;;2.50;;
20146;SDS011;10234;50.856;15.716;2022-07-05T08:19:57;3.22;;;2.83;;
20146;SDS011;10234;50.856;15.716;2022-07-05T08:22:42;3.20;;;2.90;;
20146;SDS011;10234;50.856;15.716;2022-07-05T08:25:11;3.38;;;2.47;;
20146;SDS011;10234;50.856;15.716;2022-07-05T08:27:39;4.00;;;3.05;;
20146;SDS011;10234;50.856;15.716;2022-07-05T08:30:07;2.92;;;2.50;;
20146;SDS011;10234;50.856;15.716;2022-07-05T08:32:37;2.33;;;2.03;;
20146;SDS011;10234;50.856;15.716;2022-07-05T08:35:05;2.90;;;2.00;;
20146;SDS011;10234;50.856;15.716;2022-07-05T08:37:33;1.67;;;1.50;;
20146;SDS011;10234;50.856;15.716;2022-07-05T08:40:00;2.30;;;2.10;;
20146;SDS011;10234;50.856;15.716;2022-07-05T08:42:34;2.88;;;2.50;;
20146;SDS011;10234;50.856;15.716;2022-07-05T08:45:02;4.03;;;2.28;;
20146;SDS011;10234;50.856;15.716;2022-07-05T08:47:30;4.40;;;2.70;;
20146;SDS011;10234;50.856;15.716;2022-07-05T08:49:58;2.72;;;2.53;;
20146;SDS011;10234;50.856;15.716;2022-07-05T08:52:26;3.10;;;2.20;;
20146;SDS011;10234;50.856;15.716;2022-07-05T08:54:57;3.97;;;2.10;;
20146;SDS011;10234;50.856;15.716;2022-07-05T08:57:25;2.20;;;2.10;;
20146;SDS011;10234;50.856;15.716;2022-07-05T08:59:54;2.22;;;2.10;;
20146;SDS011;10234;50.856;15.716;2022-07-05T09:02:22;2.60;;;2.40;;
20146;SDS011;10234;50.856;15.716;2022-07-05T09:04:50;1.85;;;1.75;;
20146;SDS011;10234;50.856;15.716;2022-07-05T09:07:19;2.63;;;1.75;;
20146;SDS011;10234;50.856;15.716;2022-07-05T09:09:49;2.03;;;1.70;;
20146;SDS011;10234;50.856;15.716;2022-07-05T09:12:16;2.20;;;2.00;;
20146;SDS011;10234;50.856;15.716;2022-07-05T09:14:44;2.50;;;1.45;;
20146;SDS011;10234;50.856;15.716;2022-07-05T09:17:13;2.25;;;1.75;;
20146;SDS011;10234;50.856;15.716;2022-07-05T09:19:41;2.63;;;1.38;;
20146;SDS011;10234;50.856;15.716;2022-07-05T09:22:08;1.52;;;1.10;;
20146;SDS011;10234;50.856;15.716;2022-07-05T09:24:42;2.67;;;1.30;;
20146;SDS011;10234;50.856;15.716;2022-07-05T09:27:11;1.60;;;1.50;;
20146;SDS011;10234;50.856;15.716;2022-07-05T09:29:39;3.97;;;1.63;;
20146;SDS011;10234;50.856;15.716;2022-07-05T09:32:24;2.20;;;1.30;;
20146;SDS011;10234;50.856;15.716;2022-07-05T09:34:56;2.35;;;1.42;;
20146;SDS011;10234;50.856;15.716;2022-07-05T09:37:25;1.55;;;1.45;;
20146;SDS011;10234;50.856;15.716;2022-07-05T09:40:10;2.08;;;1.48;;
20146;SDS011;10234;50.856;15.716;2022-07-05T09:42:37;1.83;;;1.38;;
20146;SDS011;10234;50.856;15.716;2022-07-05T09:45:05;2.80;;;1.70;;
20146;SDS011;10234;50.856;15.716;2022-07-05T09:47:35;1.40;;;1.30;;
20146;SDS011;10234;50.856;15.716;2022-07-05T09:50:02;1.80;;;1.30;;
20146;SDS011;10234;50.856;15.716;2022-07-05T09:52:32;1.05;;;1.05;;
20146;SDS011;10234;50.856;15.716;2022-07-05T09:55:02;2.95;;;1.30;;
20146;SDS011;10234;50.856;15.716;2022-07-05T09:57:31;1.77;;;1.30;;
20146;SDS011;10234;50.856;15.716;2022-07-05T10:00:00;1.20;;;1.10;;
20146;SDS011;10234;50.856;15.716;2022-07-05T10:02:37;2.28;;;1.20;;
20146;SDS011;10234;50.856;15.716;2022-07-05T10:05:10;3.03;;;1.20;;
20146;SDS011;10234;50.856;15.716;2022-07-05T10:07:39;1.55;;;1.20;;
20146;SDS011;10234;50.856;15.716;2022-07-05T10:10:09;1.73;;;1.45;;
20146;SDS011;10234;50.856;15.716;2022-07-05T10:12:39;3.45;;;1.40;;
20146;SDS011;10234;50.856;15.716;2022-07-05T10:15:08;1.48;;;1.30;;
20146;SDS011;10234;50.856;15.716;2022-07-05T10:17:39;1.25;;;1.10;;
20146;SDS011;10234;50.856;15.716;2022-07-05T10:20:11;1.20;;;1.10;;
20146;SDS011;10234;50.856;15.716;2022-07-05T10:22:43;2.90;;;1.20;;
20146;SDS011;10234;50.856;15.716;2022-07-05T10:25:11;1.63;;;1.20;;
20146;SDS011;10234;50.856;15.716;2022-07-05T10:27:39;1.63;;;1.30;;
20146;SDS011;10234;50.856;15.716;2022-07-05T10:30:07;2.25;;;1.20;;
20146;SDS011;10234;50.856;15.716;2022-07-05T10:32:38;1.20;;;1.10;;
20146;SDS011;10234;50.856;15.716;2022-07-05T10:35:06;1.20;;;1.10;;
20146;SDS011;10234;50.856;15.716;2022-07-05T10:37:34;3.45;;;1.15;;
20146;SDS011;10234;50.856;15.716;2022-07-05T10:40:03;2.78;;;1.35;;
20146;SDS011;10234;50.856;15.716;2022-07-05T10:42:35;2.75;;;1.70;;
20146;SDS011;10234;50.856;15.716;2022-07-05T10:45:24;2.35;;;1.10;;
20146;SDS011;10234;50.856;15.716;2022-07-05T10:50:45;1.60;;;1.25;;
20146;SDS011;10234;50.856;15.716;2022-07-05T10:53:16;4.65;;;1.50;;
20146;SDS011;10234;50.856;15.716;2022-07-05T10:55:55;1.60;;;1.10;;
20146;SDS011;10234;50.856;15.716;2022-07-05T10:58:28;1.17;;;1.05;;
20146;SDS011;10234;50.856;15.716;2022-07-05T11:07:01;0.98;;;0.90;;
20146;SDS011;10234;50.856;15.716;2022-07-05T11:09:29;0.85;;;0.85;;
20146;SDS011;10234;50.856;15.716;2022-07-05T11:12:05;1.70;;;1.02;;
20146;SDS011;10234;50.856;15.716;2022-07-05T11:14:38;1.67;;;1.00;;
20146;SDS011;10234;50.856;15.716;2022-07-05T11:20:06;1.33;;;1.20;;
20146;SDS011;10234;50.856;15.716;2022-07-05T11:22:36;2.08;;;1.10;;
20146;SDS011;10234;50.856;15.716;2022-07-05T11:25:07;0.95;;;0.80;;
20146;SDS011;10234;50.856;15.716;2022-07-05T11:27:37;1.50;;;0.85;;
20146;SDS011;10234;50.856;15.716;2022-07-05T11:30:43;1.63;;;1.00;;
20146;SDS011;10234;50.856;15.716;2022-07-05T11:33:28;1.05;;;0.90;;
20146;SDS011;10234;50.856;15.716;2022-07-05T11:35:59;1.25;;;1.10;;
20146;SDS011;10234;50.856;15.716;2022-07-05T11:38:27;1.25;;;1.00;;
20146;SDS011;10234;50.856;15.716;2022-07-05T11:40:55;3.03;;;0.90;;
20146;SDS011;10234;50.856;15.716;2022-07-05T11:43:36;2.03;;;0.90;;
20146;SDS011;10234;50.856;15.716;2022-07-05T11:46:06;1.90;;;1.02;;
20146;SDS011;10234;50.856;15.716;2022-07-05T11:48:34;1.90;;;1.00;;
20146;SDS011;10234;50.856;15.716;2022-07-05T11:51:14;2.08;;;0.95;;
20146;SDS011;10234;50.856;15.716;2022-07-05T11:53:43;1.05;;;0.98;;
20146;SDS011;10234;50.856;15.716;2022-07-05T11:56:11;1.50;;;1.15;;
20146;SDS011;10234;50.856;15.716;2022-07-05T11:58:39;1.33;;;1.00;;
20146;SDS011;10234;50.856;15.716;2022-07-05T12:01:06;1.23;;;1.13;;
20146;SDS011;10234;50.856;15.716;2022-07-05T12:03:34;1.67;;;1.10;;
20146;SDS011;10234;50.856;15.716;2022-07-05T12:06:11;1.58;;;1.13;;
20146;SDS011;10234;50.856;15.716;2022-07-05T12:08:41;1.20;;;1.10;;
20146;SDS011;10234;50.856;15.716;2022-07-05T12:11:10;2.67;;;1.42;;
20146;SDS011;10234;50.856;15.716;2022-07-05T12:13:55;1.50;;;1.02;;
20146;SDS011;10234;50.856;15.716;2022-07-05T12:16:23;1.27;;;0.98;;
20146;SDS011;10234;50.856;15.716;2022-07-05T12:18:52;2.17;;;1.10;;
20146;SDS011;10234;50.856;15.716;2022-07-05T12:21:21;4.53;;;1.30;;
20146;SDS011;10234;50.856;15.716;2022-07-05T12:23:51;1.20;;;1.10;;
20146;SDS011;10234;50.856;15.716;2022-07-05T12:26:19;1.27;;;1.10;;
20146;SDS011;10234;50.856;15.716;2022-07-05T12:28:47;2.15;;;1.10;;
20146;SDS011;10234;50.856;15.716;2022-07-05T12:31:17;1.35;;;1.25;;
20146;SDS011;10234;50.856;15.716;2022-07-05T12:33:46;1.27;;;1.08;;
20146;SDS011;10234;50.856;15.716;2022-07-05T12:36:15;3.28;;;1.10;;
20146;SDS011;10234;50.856;15.716;2022-07-05T12:38:44;1.67;;;1.20;;
20146;SDS011;10234;50.856;15.716;2022-07-05T12:41:20;1.83;;;1.20;;
20146;SDS011;10234;50.856;15.716;2022-07-05T12:43:49;3.90;;;1.27;;
20146;SDS011;10234;50.856;15.716;2022-07-05T12:46:19;1.67;;;1.20;;
20146;SDS011;10234;50.856;15.716;2022-07-05T12:48:51;2.05;;;1.30;;
20146;SDS011;10234;50.856;15.716;2022-07-05T12:51:33;3.60;;;1.20;;
20146;SDS011;10234;50.856;15.716;2022-07-05T12:54:02;2.30;;;1.02;;
20146;SDS011;10234;50.856;15.716;2022-07-05T12:57:00;1.30;;;1.20;;
20146;SDS011;10234;50.856;15.716;2022-07-05T12:59:56;2.22;;;1.20;;
20146;SDS011;10234;50.856;15.716;2022-07-05T13:02:34;1.05;;;1.00;;
20146;SDS011;10234;50.856;15.716;2022-07-05T13:05:04;1.35;;;1.13;;
20146;SDS011;10234;50.856;15.716;2022-07-05T13:07:33;1.02;;;1.00;;
20146;SDS011;10234;50.856;15.716;2022-07-05T13:10:13;1.30;;;1.05;;
20146;SDS011;10234;50.856;15.716;2022-07-05T13:12:43;2.15;;;1.20;;
20146;SDS011;10234;50.856;15.716;2022-07-05T13:15:12;1.25;;;1.17;;
20146;SDS011;10234;50.856;15.716;2022-07-05T13:17:40;1.17;;;1.13;;
20146;SDS011;10234;50.856;15.716;2022-07-05T13:20:12;1.20;;;1.10;;
20146;SDS011;10234;50.856;15.716;2022-07-05T13:22:42;1.73;;;1.13;;
20146;SDS011;10234;50.856;15.716;2022-07-05T13:25:10;1.25;;;1.00;;
20146;SDS011;10234;50.856;15.716;2022-07-05T13:27:38;2.05;;;1.23;;
20146;SDS011;10234;50.856;15.716;2022-07-05T13:30:08;2.28;;;1.10;;
20146;SDS011;10234;50.856;15.716;2022-07-05T13:32:37;1.67;;;1.10;;
20146;SDS011;10234;50.856;15.716;2022-07-05T13:35:06;1.48;;;1.02;;
20146;SDS011;10234;50.856;15.716;2022-07-05T13:37:34;3.05;;;1.10;;
20146;SDS011;10234;50.856;15.716;2022-07-05T13:40:02;5.18;;;1.33;;
20146;SDS011;10234;50.856;15.716;2022-07-05T13:42:30;3.17;;;1.23;;
20146;SDS011;10234;50.856;15.716;2022-07-05T13:44:58;1.23;;;1.10;;
20146;SDS011;10234;50.856;15.716;2022-07-05T13:47:27;2.55;;;1.20;;
20146;SDS011;10234;50.856;15.716;2022-07-05T13:49:55;1.73;;;1.30;;
20146;SDS011;10234;50.856;15.716;2022-07-05T13:52:36;1.90;;;1.00;;
20146;SDS011;10234;50.856;15.716;2022-07-05T13:55:04;1.50;;;1.40;;
20146;SDS011;10234;50.856;15.716;2022-07-05T13:57:33;1.35;;;1.25;;
20146;SDS011;10234;50.856;15.716;2022-07-05T14:00:01;1.80;;;1.30;;
20146;SDS011;10234;50.856;15.716;2022-07-05T14:02:31;1.55;;;1.45;;
20146;SDS011;10234;50.856;15.716;2022-07-05T14:04:59;3.08;;;1.23;;
20146;SDS011;10234;50.856;15.716;2022-07-05T14:07:26;1.48;;;1.33;;
20146;SDS011;10234;50.856;15.716;2022-07-05T14:09:54;2.65;;;1.20;;
20146;SDS011;10234;50.856;15.716;2022-07-05T14:12:21;1.45;;;1.20;;
20146;SDS011;10234;50.856;15.716;2022-07-05T14:14:49;2.85;;;1.50;;
20146;SDS011;10234;50.856;15.716;2022-07-05T14:17:17;2.17;;;1.40;;
20146;SDS011;10234;50.856;15.716;2022-07-05T14:19:46;1.77;;;1.50;;
20146;SDS011;10234;50.856;15.716;2022-07-05T14:22:14;2.00;;;1.60;;
20146;SDS011;10234;50.856;15.716;2022-07-05T14:24:42;2.55;;;1.40;;
20146;SDS011;10234;50.856;15.716;2022-07-05T14:27:10;3.38;;;1.67;;
20146;SDS011;10234;50.856;15.716;2022-07-05T14:29:37;6.95;;;1.40;;
20146;SDS011;10234;50.856;15.716;2022-07-05T14:32:05;1.20;;;1.10;;
20146;SDS011;10234;50.856;15.716;2022-07-05T14:34:33;1.30;;;1.20;;
20146;SDS011;10234;50.856;15.716;2022-07-05T14:37:05;1.30;;;1.20;;
20146;SDS011;10234;50.856;15.716;2022-07-05T14:39:33;2.70;;;1.30;;
20146;SDS011;10234;50.856;15.716;2022-07-05T14:42:01;1.55;;;1.45;;
20146;SDS011;10234;50.856;15.716;2022-07-05T14:44:30;4.97;;;1.80;;
20146;SDS011;10234;50.856;15.716;2022-07-05T14:46:58;1.65;;;1.33;;
20146;SDS011;10234;50.856;15.716;2022-07-05T14:49:25;2.13;;;1.17;;
20146;SDS011;10234;50.856;15.716;2022-07-05T14:51:53;3.33;;;1.30;;
20146;SDS011;10234;50.856;15.716;2022-07-05T14:54:22;3.42;;;1.40;;